Time;durP1;ratioP1;P1;durP2;ratioP2;P2;SDS_P1;SDS_P2;PMS_P1;PMS_P2;Temp;Humidity;BMP_temperature;BMP_pressure;BME280_temperature;BME280_humidity;BME280_pressure;Samples;Min_cycle;Max_cycle;Signal;HPM_P1;HPM_P2
2024/02/09 00:00:54;;;;;;;69.75;47.97;;;9.20;99.90;;;;;;5047357;28;20228;-71
2024/02/09 00:03:22;;;;;;;56.38;41.30;;;9.20;99.90;;;;;;5049483;28;20309;-71
2024/02/09 00:05:50;;;;;;;62.30;43.85;;;9.20;99.90;;;;;;5050023;28;20252;-71
2024/02/09 00:08:18;;;;;;;57.45;42.90;;;9.20;99.90;;;;;;5047139;28;20226;-71
2024/02/09 00:10:47;;;;;;;70.63;49.63;;;9.20;99.90;;;;;;5052972;28;20233;-71
2024/02/09 00:13:15;;;;;;;65.88;46.63;;;9.20;99.90;;;;;;5029479;28;20211;-71
2024/02/09 00:15:45;;;;;;;59.20;44.70;;;9.20;99.90;;;;;;5049601;28;20309;-71
2024/02/09 00:18:15;;;;;;;79.15;54.65;;;9.20;99.90;;;;;;5043371;28;20222;-73
2024/02/09 00:20:42;;;;;;;73.55;52.28;;;9.20;99.90;;;;;;5044366;28;20215;-73
2024/02/09 00:23:10;;;;;;;83.05;54.60;;;9.10;99.90;;;;;;5045042;28;20304;-72
2024/02/09 00:25:37;;;;;;;80.00;54.83;;;9.00;99.90;;;;;;5041089;28;20662;-72
2024/02/09 00:28:05;;;;;;;86.88;58.80;;;8.90;99.90;;;;;;5044794;28;20941;-70
2024/02/09 00:30:32;;;;;;;73.00;51.47;;;8.80;99.90;;;;;;5043936;28;20242;-71
2024/02/09 00:33:03;;;;;;;63.05;45.08;;;8.80;99.90;;;;;;5048414;28;20770;-71
2024/02/09 00:35:31;;;;;;;55.58;40.85;;;8.80;99.90;;;;;;5048119;28;20218;-73
2024/02/09 00:38:00;;;;;;;61.15;43.45;;;8.80;99.90;;;;;;5047612;28;20220;-71
2024/02/09 00:40:31;;;;;;;53.15;39.97;;;8.80;99.90;;;;;;5042989;28;20242;-71
2024/02/09 00:43:01;;;;;;;60.80;42.65;;;8.90;99.90;;;;;;5041703;28;20227;-71
2024/02/09 00:45:28;;;;;;;53.78;39.72;;;8.90;99.90;;;;;;5046538;28;20626;-72
2024/02/09 00:47:56;;;;;;;51.08;37.78;;;8.80;99.90;;;;;;5042558;28;20228;-71
2024/02/09 00:50:23;;;;;;;54.40;40.15;;;8.80;99.90;;;;;;5041188;28;20226;-72
2024/02/09 00:52:53;;;;;;;52.67;38.80;;;8.80;99.90;;;;;;5045957;28;20315;-74
2024/02/09 00:55:21;;;;;;;67.15;48.58;;;8.80;99.90;;;;;;5044850;28;20281;-71
2024/02/09 00:57:48;;;;;;;57.25;41.53;;;8.80;99.90;;;;;;5043494;28;20273;-72
2024/02/09 01:00:18;;;;;;;60.00;43.72;;;8.80;99.90;;;;;;5044066;28;20314;-71
2024/02/09 01:02:45;;;;;;;70.35;50.10;;;8.80;99.90;;;;;;5044208;28;20237;-71
2024/02/09 01:05:14;;;;;;;63.55;44.90;;;8.80;99.90;;;;;;5048706;28;20221;-71
2024/02/09 01:07:42;;;;;;;60.20;44.65;;;8.70;99.90;;;;;;5046146;28;20217;-71
2024/02/09 01:10:11;;;;;;;64.82;46.17;;;8.70;99.90;;;;;;5045884;28;20235;-71
2024/02/09 02:46:14;;;;;;;70.55;48.30;;;7.80;99.90;;;;;;5048417;28;20682;-72
2024/02/09 03:05:14;;;;;;;59.55;43.45;;;7.80;99.90;;;;;;5047122;28;20256;-72
2024/02/09 03:07:42;;;;;;;59.10;42.83;;;7.80;99.90;;;;;;5042557;28;20210;-73
2024/02/09 03:10:10;;;;;;;52.38;39.20;;;7.80;99.90;;;;;;5042016;28;20250;-73
2024/02/09 03:12:39;;;;;;;51.83;38.38;;;7.80;99.90;;;;;;5043764;28;20218;-71
2024/02/09 03:15:09;;;;;;;58.10;43.13;;;7.80;99.90;;;;;;5044628;28;20321;-73
2024/02/09 03:17:37;;;;;;;55.13;40.80;;;7.80;99.90;;;;;;5042466;28;20870;-73
2024/02/09 03:20:05;;;;;;;49.45;37.05;;;7.80;99.90;;;;;;5041393;28;20673;-73
2024/02/09 03:22:34;;;;;;;45.35;34.58;;;7.80;99.90;;;;;;5039271;28;21027;-73
2024/02/09 03:25:03;;;;;;;40.67;32.30;;;7.80;99.90;;;;;;5045042;28;21465;-73
2024/02/09 03:27:32;;;;;;;40.38;31.48;;;7.80;99.90;;;;;;5049920;28;20230;-73
2024/02/09 03:30:00;;;;;;;41.75;30.98;;;7.80;99.90;;;;;;5040105;28;20882;-72
2024/02/09 03:32:28;;;;;;;36.83;29.48;;;7.90;99.90;;;;;;5042363;28;20223;-72
2024/02/09 03:34:55;;;;;;;37.20;28.17;;;7.90;99.90;;;;;;5043908;28;20295;-72
2024/02/09 03:37:26;;;;;;;36.92;29.20;;;7.90;99.90;;;;;;5051178;28;20264;-72
2024/02/09 03:39:55;;;;;;;35.78;28.45;;;7.90;99.90;;;;;;5040399;28;20206;-72
2024/02/09 03:42:23;;;;;;;32.88;26.02;;;8.00;99.90;;;;;;5040930;28;20314;-72
2024/02/09 03:44:50;;;;;;;36.13;28.15;;;8.10;99.90;;;;;;5045338;28;20300;-72
2024/02/09 03:47:19;;;;;;;35.25;26.90;;;8.10;99.90;;;;;;5045654;28;20225;-72
2024/02/09 03:49:47;;;;;;;35.08;27.35;;;8.10;99.90;;;;;;5049035;28;20463;-73
2024/02/09 03:52:14;;;;;;;33.13;25.42;;;8.10;99.90;;;;;;5045031;28;20230;-72
2024/02/09 03:54:42;;;;;;;36.15;28.00;;;8.10;99.90;;;;;;5042640;28;20199;-72
2024/02/09 03:57:10;;;;;;;36.60;28.02;;;8.10;99.90;;;;;;5031954;28;20234;-72
2024/02/09 03:59:39;;;;;;;32.78;24.88;;;8.10;99.90;;;;;;5047019;28;20209;-72
2024/02/09 04:02:07;;;;;;;32.90;26.40;;;8.10;99.90;;;;;;5044162;28;20230;-72
2024/02/09 04:04:34;;;;;;;28.85;23.55;;;8.10;99.90;;;;;;5040992;28;20226;-72
2024/02/09 04:07:02;;;;;;;32.80;24.55;;;8.20;99.90;;;;;;5046419;28;20228;-72
2024/02/09 04:09:29;;;;;;;28.42;23.85;;;8.20;99.90;;;;;;5047496;28;20203;-72
2024/02/09 04:11:56;;;;;;;31.70;24.17;;;8.20;99.90;;;;;;5042350;28;20238;-72
2024/02/09 04:14:25;;;;;;;32.35;25.08;;;8.20;99.90;;;;;;5044451;28;20200;-72
2024/02/09 04:16:52;;;;;;;27.42;22.02;;;8.20;99.90;;;;;;5047265;28;20733;-72
2024/02/09 04:19:20;;;;;;;23.80;19.88;;;8.30;99.90;;;;;;5042914;28;20261;-71
2024/02/09 04:21:48;;;;;;;27.17;22.52;;;8.30;99.90;;;;;;5046180;28;20251;-71
2024/02/09 04:24:16;;;;;;;29.00;23.05;;;8.30;99.90;;;;;;5041073;28;20250;-72
2024/02/09 04:26:44;;;;;;;33.85;25.80;;;8.30;99.90;;;;;;5041948;28;20681;-72
2024/02/09 04:29:15;;;;;;;37.20;30.15;;;8.20;99.90;;;;;;5045915;28;20215;-72
2024/02/09 04:31:44;;;;;;;49.88;35.22;;;8.10;99.90;;;;;;5035572;28;20219;-72
2024/02/09 04:34:11;;;;;;;40.67;31.05;;;8.00;99.90;;;;;;5044472;28;20649;-72
2024/02/09 04:36:39;;;;;;;34.28;26.55;;;7.90;99.90;;;;;;5042977;28;20226;-72
2024/02/09 04:39:08;;;;;;;30.90;25.55;;;7.90;99.90;;;;;;5043399;28;20223;-72
2024/02/09 04:41:36;;;;;;;34.22;27.45;;;8.00;99.90;;;;;;5046730;28;20218;-73
2024/02/09 04:44:04;;;;;;;31.13;25.55;;;8.00;99.90;;;;;;5050100;28;20222;-73
2024/02/09 04:46:32;;;;;;;42.53;30.80;;;8.10;99.90;;;;;;5059115;28;20221;-73
2024/02/09 04:49:01;;;;;;;33.90;27.00;;;8.00;99.90;;;;;;5052220;28;20226;-72
2024/02/09 04:51:28;;;;;;;34.92;26.67;;;8.00;99.90;;;;;;5044025;28;20220;-73
2024/02/09 04:53:58;;;;;;;35.10;26.70;;;7.90;99.90;;;;;;5049132;28;20582;-73
2024/02/09 04:56:29;;;;;;;29.92;23.30;;;8.00;99.90;;;;;;5048605;28;20588;-72
2024/02/09 04:58:57;;;;;;;30.48;23.25;;;8.00;99.90;;;;;;5043732;28;20227;-73
2024/02/09 05:01:29;;;;;;;25.65;21.13;;;8.10;99.90;;;;;;5044712;28;20242;-73
2024/02/09 05:03:57;;;;;;;33.78;27.17;;;8.10;99.90;;;;;;5045884;28;20223;-72
2024/02/09 05:06:26;;;;;;;45.13;33.95;;;8.10;99.90;;;;;;5052455;28;20722;-73
2024/02/09 05:08:53;;;;;;;37.47;28.67;;;8.10;99.90;;;;;;5030244;28;20578;-72
2024/02/09 05:11:21;;;;;;;32.65;25.60;;;8.00;99.90;;;;;;5050206;28;20242;-73
2024/02/09 05:13:49;;;;;;;32.97;26.58;;;8.00;99.90;;;;;;5046951;28;20215;-72
2024/02/09 05:16:16;;;;;;;31.33;24.67;;;8.00;99.90;;;;;;5048401;28;20268;-73
2024/02/09 05:18:43;;;;;;;29.90;22.83;;;8.00;99.90;;;;;;5048826;28;20681;-73
2024/02/09 05:21:11;;;;;;;29.73;22.27;;;8.00;99.90;;;;;;5046181;28;20614;-73
2024/02/09 05:23:39;;;;;;;25.75;21.08;;;8.10;99.90;;;;;;5050369;28;20246;-73
2024/02/09 05:26:08;;;;;;;27.90;22.38;;;8.10;99.90;;;;;;5038214;28;20309;-73
2024/02/09 05:28:38;;;;;;;24.73;20.25;;;8.10;99.90;;;;;;5045438;28;20222;-72
2024/02/09 05:31:05;;;;;;;26.13;21.77;;;8.20;99.90;;;;;;5047871;28;20225;-73
2024/02/09 05:33:34;;;;;;;26.83;21.60;;;8.20;99.90;;;;;;5046086;28;20322;-73
2024/02/09 05:36:01;;;;;;;27.23;20.70;;;8.20;99.90;;;;;;5046862;28;20759;-72
2024/02/09 05:38:30;;;;;;;26.17;20.75;;;8.30;99.90;;;;;;5051541;28;20311;-73
2024/02/09 05:40:58;;;;;;;32.47;25.13;;;8.30;99.90;;;;;;5039715;28;20288;-72
2024/02/09 05:43:25;;;;;;;29.70;24.48;;;8.30;99.90;;;;;;5051508;28;20239;-72
2024/02/09 05:45:52;;;;;;;26.73;22.17;;;8.20;99.90;;;;;;5048619;28;20247;-72
2024/02/09 05:48:20;;;;;;;24.10;19.67;;;8.20;99.90;;;;;;5051504;28;20250;-73
2024/02/09 05:50:47;;;;;;;38.22;26.10;;;8.20;99.90;;;;;;5048281;28;20218;-73
2024/02/09 05:53:14;;;;;;;32.05;25.33;;;8.20;99.90;;;;;;5046164;28;21106;-73
2024/02/09 05:55:45;;;;;;;34.65;25.98;;;8.20;99.90;;;;;;5045583;28;20276;-73
2024/02/09 05:58:13;;;;;;;34.28;25.95;;;8.10;99.90;;;;;;5044988;28;21262;-72
2024/02/09 06:00:40;;;;;;;29.33;23.23;;;8.10;99.90;;;;;;5041462;28;20230;-72
2024/02/09 06:03:08;;;;;;;35.35;26.13;;;8.10;99.90;;;;;;5045558;28;20304;-72
2024/02/09 06:05:40;;;;;;;39.45;28.92;;;8.10;99.90;;;;;;5047402;28;20214;-73
2024/02/09 06:08:09;;;;;;;40.78;31.45;;;8.10;99.90;;;;;;5052202;28;20210;-72
2024/02/09 06:10:36;;;;;;;37.42;28.27;;;8.00;99.90;;;;;;5046276;28;20227;-73
2024/02/09 06:13:04;;;;;;;29.60;25.40;;;8.00;99.90;;;;;;5044590;28;20221;-73
2024/02/09 06:15:32;;;;;;;28.67;23.42;;;8.00;99.90;;;;;;5044585;28;20246;-73
2024/02/09 06:18:02;;;;;;;27.02;22.80;;;8.10;99.90;;;;;;5041037;28;20218;-72
2024/02/09 06:20:30;;;;;;;30.50;23.80;;;8.10;99.90;;;;;;5044529;28;20290;-73
2024/02/09 06:22:58;;;;;;;27.17;20.80;;;8.20;99.90;;;;;;5044741;28;20225;-73
2024/02/09 06:25:26;;;;;;;29.15;23.23;;;8.20;99.90;;;;;;5044020;28;20229;-72
2024/02/09 06:27:54;;;;;;;37.85;28.55;;;8.20;99.90;;;;;;5044004;28;20271;-72
2024/02/09 06:30:22;;;;;;;32.03;23.92;;;8.20;99.90;;;;;;5048955;28;20229;-72
2024/02/09 06:32:51;;;;;;;31.63;22.88;;;8.20;99.90;;;;;;5045042;28;20242;-73
2024/02/09 06:35:18;;;;;;;27.17;21.80;;;8.20;99.90;;;;;;5044315;28;20727;-72
2024/02/09 06:37:46;;;;;;;31.92;24.90;;;8.20;99.90;;;;;;5044389;28;20311;-73
2024/02/09 06:40:14;;;;;;;32.00;24.65;;;8.30;99.90;;;;;;5027087;28;20225;-73
2024/02/09 06:42:43;;;;;;;31.73;25.10;;;8.20;99.90;;;;;;5047322;28;20218;-73
2024/02/09 06:45:14;;;;;;;37.00;26.92;;;8.20;99.90;;;;;;5046858;28;20760;-73
2024/02/09 06:47:41;;;;;;;30.17;23.83;;;8.20;99.90;;;;;;5048319;28;20226;-73
2024/02/09 06:50:11;;;;;;;35.60;27.70;;;8.20;99.90;;;;;;5041532;28;20272;-73
2024/02/09 06:52:40;;;;;;;33.72;26.50;;;8.20;99.90;;;;;;5044597;28;20218;-73
2024/02/09 06:55:11;;;;;;;30.83;23.95;;;8.20;99.90;;;;;;5042758;28;20277;-73
2024/02/09 06:57:44;;;;;;;29.88;23.13;;;8.20;99.90;;;;;;5047521;28;20880;-73
2024/02/09 07:00:14;;;;;;;33.10;25.13;;;8.20;99.90;;;;;;5043236;28;20226;-73
2024/02/09 07:02:41;;;;;;;31.13;24.77;;;8.20;99.90;;;;;;5047458;28;20298;-73
2024/02/09 07:05:11;;;;;;;31.77;24.40;;;8.20;99.90;;;;;;5048608;28;20254;-72
2024/02/09 07:07:43;;;;;;;37.28;26.25;;;8.10;99.90;;;;;;5046867;28;20214;-73
2024/02/09 07:10:11;;;;;;;38.75;29.10;;;8.10;99.90;;;;;;5041853;28;20227;-73
2024/02/09 07:12:39;;;;;;;38.40;29.08;;;8.10;99.90;;;;;;5039429;28;20218;-73
2024/02/09 07:15:07;;;;;;;34.53;27.20;;;8.10;99.90;;;;;;5046076;28;20235;-72
2024/02/09 07:17:35;;;;;;;30.85;24.48;;;8.10;99.90;;;;;;5038135;28;20311;-72
2024/02/09 07:20:03;;;;;;;33.13;25.67;;;8.10;99.90;;;;;;5042151;28;20216;-71
2024/02/09 07:22:31;;;;;;;31.25;23.20;;;8.10;99.90;;;;;;5041611;28;20218;-72
2024/02/09 07:24:59;;;;;;;31.33;24.58;;;8.10;99.90;;;;;;5041233;28;21067;-71
2024/02/09 07:27:26;;;;;;;31.48;23.90;;;8.10;99.90;;;;;;5038291;28;20753;-72
2024/02/09 07:29:53;;;;;;;26.40;22.13;;;8.10;99.90;;;;;;5041971;28;20297;-72
2024/02/09 07:32:20;;;;;;;32.47;24.98;;;8.20;99.90;;;;;;5040148;28;20725;-73
2024/02/09 07:34:48;;;;;;;28.17;22.38;;;8.20;99.90;;;;;;5040860;28;20258;-71
2024/02/09 07:37:15;;;;;;;26.40;22.10;;;8.20;99.90;;;;;;5053125;28;20276;-72
2024/02/09 07:39:44;;;;;;;30.00;24.05;;;8.30;99.90;;;;;;5035230;28;20196;-72
2024/02/09 07:42:12;;;;;;;32.58;24.20;;;8.30;99.90;;;;;;5038955;28;20251;-72
2024/02/09 07:44:39;;;;;;;32.53;24.10;;;8.30;99.90;;;;;;5038672;28;20223;-72
2024/02/09 07:47:07;;;;;;;28.58;23.10;;;8.30;99.90;;;;;;5042067;28;20294;-73
2024/02/09 07:49:34;;;;;;;26.40;21.73;;;8.30;99.90;;;;;;5038208;28;20207;-72
2024/02/09 07:52:02;;;;;;;27.63;21.92;;;8.20;99.90;;;;;;5037401;28;20305;-72
2024/02/09 07:54:31;;;;;;;29.20;22.52;;;8.30;99.90;;;;;;5040628;28;20207;-73
2024/02/09 07:57:00;;;;;;;32.55;24.08;;;8.30;99.90;;;;;;5041807;28;20953;-72
2024/02/09 07:59:27;;;;;;;30.00;24.45;;;8.20;99.90;;;;;;5037435;28;20264;-72
2024/02/09 08:01:56;;;;;;;38.47;27.90;;;8.30;99.90;;;;;;5037457;28;20241;-73
2024/02/09 08:04:25;;;;;;;40.63;29.17;;;8.30;99.90;;;;;;5037824;28;20631;-72
2024/02/09 08:06:52;;;;;;;33.92;25.35;;;8.20;99.90;;;;;;5038201;28;20214;-72
2024/02/09 08:09:19;;;;;;;29.45;22.98;;;8.30;99.90;;;;;;5042328;28;20195;-72
2024/02/09 08:11:48;;;;;;;43.15;29.48;;;8.30;99.90;;;;;;5041906;28;20238;-73
2024/02/09 08:14:16;;;;;;;31.23;22.88;;;8.30;99.90;;;;;;5041780;28;20595;-71
2024/02/09 08:16:46;;;;;;;27.05;20.48;;;8.30;99.90;;;;;;5043686;28;20261;-71
2024/02/09 08:19:13;;;;;;;24.02;18.92;;;8.30;99.90;;;;;;5042028;28;20787;-71
2024/02/09 08:21:40;;;;;;;42.75;30.35;;;8.40;99.90;;;;;;5036102;28;20888;-71
2024/02/09 08:24:10;;;;;;;37.17;27.40;;;8.40;99.90;;;;;;5043448;28;20329;-73
2024/02/09 08:26:37;;;;;;;33.17;24.83;;;8.40;99.90;;;;;;5045352;28;20233;-72
2024/02/09 08:29:04;;;;;;;34.03;26.13;;;8.40;99.90;;;;;;5041182;28;20218;-71
2024/02/09 08:31:33;;;;;;;28.85;22.35;;;8.40;99.90;;;;;;5047971;28;20246;-71
2024/02/09 08:34:00;;;;;;;34.63;27.30;;;8.40;99.90;;;;;;5046301;28;20242;-70
2024/02/09 08:36:27;;;;;;;41.50;30.38;;;8.30;99.90;;;;;;5039721;28;20254;-72
2024/02/09 08:38:54;;;;;;;47.63;33.22;;;8.30;99.90;;;;;;5038387;28;20235;-72
2024/02/09 08:41:21;;;;;;;42.33;30.30;;;8.30;99.90;;;;;;5047537;28;20214;-71
2024/02/09 08:43:48;;;;;;;34.50;26.58;;;8.30;99.90;;;;;;5037852;28;20246;-71
2024/02/09 08:46:16;;;;;;;29.67;23.55;;;8.30;99.90;;;;;;5042034;28;20250;-71
2024/02/09 08:48:44;;;;;;;34.05;25.75;;;8.40;99.90;;;;;;5043507;28;20225;-71
2024/02/09 08:51:11;;;;;;;27.75;21.67;;;8.40;99.90;;;;;;5045630;28;20905;-71
2024/02/09 08:53:38;;;;;;;25.63;20.70;;;8.40;99.90;;;;;;5046700;28;20223;-70
2024/02/09 08:56:06;;;;;;;24.80;20.30;;;8.40;99.90;;;;;;5046213;28;20736;-71
2024/02/09 08:58:36;;;;;;;24.73;19.73;;;8.40;99.90;;;;;;5046744;28;20214;-71
2024/02/09 09:01:04;;;;;;;32.75;25.73;;;8.40;99.90;;;;;;5043633;28;20242;-71
2024/02/09 09:03:33;;;;;;;35.90;26.58;;;8.50;99.90;;;;;;5038006;28;20257;-71
2024/02/09 09:06:03;;;;;;;34.85;25.80;;;8.40;99.90;;;;;;5045218;28;20246;-71
2024/02/09 09:08:30;;;;;;;34.15;24.25;;;8.40;99.90;;;;;;5044345;28;20306;-71
2024/02/09 09:10:57;;;;;;;33.20;24.20;;;8.40;99.90;;;;;;5051710;28;20700;-72
2024/02/09 09:13:24;;;;;;;45.25;31.08;;;8.40;99.90;;;;;;5041993;28;20247;-72
2024/02/09 09:15:51;;;;;;;37.53;27.48;;;8.40;99.90;;;;;;5045100;28;20234;-71
2024/02/09 09:18:19;;;;;;;33.70;26.33;;;8.40;99.90;;;;;;5039421;28;20246;-71
2024/02/09 09:20:46;;;;;;;29.33;21.75;;;8.50;99.90;;;;;;5039910;28;20309;-72
2024/02/09 09:23:15;;;;;;;33.63;24.95;;;8.60;99.90;;;;;;5044797;28;20301;-71
2024/02/09 09:25:42;;;;;;;27.50;21.70;;;8.60;99.90;;;;;;5046530;28;20250;-71
2024/02/09 09:28:09;;;;;;;26.80;20.45;;;8.60;99.90;;;;;;5045816;28;20289;-71
2024/02/09 09:30:37;;;;;;;28.05;21.45;;;8.70;99.90;;;;;;5047791;28;20225;-71
2024/02/09 09:33:05;;;;;;;33.15;24.10;;;8.60;99.90;;;;;;5047171;28;20588;-71
2024/02/09 09:35:32;;;;;;;32.47;23.63;;;8.60;99.90;;;;;;5044174;28;20222;-72
2024/02/09 09:37:59;;;;;;;29.80;22.05;;;8.60;99.90;;;;;;5043522;28;20254;-71
2024/02/09 09:40:32;;;;;;;28.48;20.17;;;8.60;99.90;;;;;;5028814;28;20225;-71
2024/02/09 09:43:00;;;;;;;28.67;22.33;;;8.70;99.90;;;;;;5046251;28;20688;-73
2024/02/09 09:45:27;;;;;;;23.92;18.95;;;8.70;99.90;;;;;;5047988;28;20649;-72
2024/02/09 09:47:56;;;;;;;26.48;20.35;;;8.70;99.90;;;;;;5041972;28;20231;-72
2024/02/09 09:50:25;;;;;;;25.63;19.40;;;8.80;99.90;;;;;;5043050;28;20221;-75
2024/02/09 09:52:55;;;;;;;26.58;19.65;;;8.90;99.90;;;;;;5044438;28;20223;-72
2024/02/09 09:55:26;;;;;;;23.10;18.40;;;8.90;99.90;;;;;;5043304;28;20239;-73
2024/02/09 09:57:56;;;;;;;24.17;18.83;;;8.90;99.90;;;;;;5038800;28;20242;-72
2024/02/09 10:00:24;;;;;;;20.15;16.13;;;9.00;99.90;;;;;;5045155;28;20309;-73
2024/02/09 10:02:53;;;;;;;19.98;15.55;;;9.10;99.90;;;;;;5042955;28;20215;-74
2024/02/09 10:05:20;;;;;;;18.25;16.02;;;9.10;99.90;;;;;;5041553;28;20659;-72
2024/02/09 10:07:47;;;;;;;31.88;24.50;;;9.10;99.90;;;;;;5038010;28;20336;-72
2024/02/09 10:10:16;;;;;;;22.73;18.00;;;9.10;99.90;;;;;;5055871;28;20283;-73
2024/02/09 10:12:43;;;;;;;26.17;19.90;;;9.10;99.90;;;;;;5045802;28;20218;-70
2024/02/09 10:15:12;;;;;;;25.42;19.48;;;9.00;99.90;;;;;;5044578;28;20313;-71
2024/02/09 10:17:40;;;;;;;30.50;23.08;;;9.00;99.90;;;;;;5032517;28;20341;-71
2024/02/09 10:20:10;;;;;;;25.08;20.70;;;9.00;99.90;;;;;;5040151;28;20225;-71
2024/02/09 10:22:38;;;;;;;26.25;21.15;;;9.00;99.90;;;;;;5045558;28;20914;-71
2024/02/09 10:25:07;;;;;;;30.75;22.38;;;9.00;99.90;;;;;;5041544;28;20733;-71
2024/02/09 10:27:36;;;;;;;26.73;20.88;;;9.00;99.90;;;;;;5033664;28;20215;-69
2024/02/09 10:30:03;;;;;;;26.40;21.45;;;9.10;99.90;;;;;;5039476;28;20852;-70
2024/02/09 10:32:33;;;;;;;29.10;22.63;;;9.10;99.90;;;;;;5038651;28;20313;-71
2024/02/09 10:35:00;;;;;;;25.48;20.95;;;9.10;99.90;;;;;;5039193;28;20233;-70
2024/02/09 10:37:27;;;;;;;24.92;19.10;;;9.10;99.90;;;;;;5042852;28;20640;-70
2024/02/09 10:39:54;;;;;;;24.17;18.50;;;9.10;99.90;;;;;;5037966;28;20210;-71
2024/02/09 10:42:23;;;;;;;21.70;16.45;;;9.10;99.90;;;;;;5043354;28;20771;-71
2024/02/09 10:44:54;;;;;;;17.30;15.30;;;9.20;99.90;;;;;;5043951;28;20229;-70
2024/02/09 10:47:25;;;;;;;20.23;17.17;;;9.20;99.90;;;;;;5041596;28;20279;-71
2024/02/09 10:49:58;;;;;;;27.90;21.05;;;9.20;99.90;;;;;;5041835;28;20389;-71
2024/02/09 10:52:26;;;;;;;30.20;20.88;;;9.20;99.90;;;;;;5044077;28;20241;-71
2024/02/09 10:54:56;;;;;;;22.25;18.20;;;9.20;99.90;;;;;;5038616;28;21330;-71
2024/02/09 10:57:24;;;;;;;24.63;17.75;;;9.20;99.90;;;;;;5044488;28;20225;-71
2024/02/09 10:59:52;;;;;;;21.60;16.35;;;9.20;99.90;;;;;;5056651;28;20225;-72
2024/02/09 11:02:20;;;;;;;21.10;16.83;;;9.30;99.90;;;;;;5040786;28;20300;-70
2024/02/09 11:04:47;;;;;;;20.08;15.00;;;9.30;99.90;;;;;;5035544;28;20245;-72
2024/02/09 11:07:16;;;;;;;18.45;15.00;;;9.30;99.90;;;;;;5034238;28;20587;-71
2024/02/09 11:09:44;;;;;;;16.65;13.48;;;9.30;99.90;;;;;;5036891;28;20276;-71
2024/02/09 11:12:13;;;;;;;17.08;14.15;;;9.30;99.90;;;;;;5040487;28;20222;-71
2024/02/09 11:14:44;;;;;;;13.65;11.85;;;9.40;99.90;;;;;;5039963;28;20211;-71
2024/02/09 11:17:12;;;;;;;13.07;11.63;;;9.50;99.90;;;;;;5041106;28;20296;-71
2024/02/09 11:19:40;;;;;;;16.98;13.88;;;9.50;99.90;;;;;;5040611;28;20223;-71
2024/02/09 11:22:08;;;;;;;16.33;14.05;;;9.50;99.90;;;;;;5037703;28;20304;-71
2024/02/09 11:24:37;;;;;;;15.68;13.25;;;9.60;99.90;;;;;;5040443;28;20761;-71
2024/02/09 11:27:06;;;;;;;13.60;11.98;;;9.60;99.90;;;;;;5038857;28;20629;-71
2024/02/09 11:29:34;;;;;;;13.52;11.82;;;9.70;99.90;;;;;;5042526;28;21815;-71
2024/02/09 11:32:04;;;;;;;15.27;11.25;;;9.80;99.90;;;;;;5035230;28;20234;-70
2024/02/09 11:34:34;;;;;;;11.00;9.82;;;9.80;99.90;;;;;;5038491;28;20232;-71
2024/02/09 11:37:02;;;;;;;11.02;9.82;;;9.80;99.90;;;;;;5036416;28;20864;-71
2024/02/09 11:39:31;;;;;;;13.13;10.80;;;9.80;99.90;;;;;;5042579;28;20231;-71
2024/02/09 11:41:59;;;;;;;10.00;8.93;;;9.80;99.90;;;;;;5040150;28;20225;-71
2024/02/09 11:44:26;;;;;;;10.00;9.00;;;9.80;99.90;;;;;;5037351;28;20238;-71
2024/02/09 11:46:55;;;;;;;9.48;8.48;;;9.80;99.90;;;;;;5035547;28;20219;-71
2024/02/09 11:49:23;;;;;;;12.23;10.07;;;9.80;99.90;;;;;;5042227;28;20207;-70
2024/02/09 11:51:50;;;;;;;10.05;8.80;;;9.80;99.90;;;;;;5047338;28;20766;-71
2024/02/09 11:54:17;;;;;;;9.65;8.65;;;9.80;99.90;;;;;;5048533;28;20289;-71
2024/02/09 11:56:46;;;;;;;9.43;7.97;;;9.80;99.90;;;;;;5044943;28;20227;-70
2024/02/09 11:59:14;;;;;;;8.85;7.95;;;9.80;99.90;;;;;;5044802;28;20882;-71
2024/02/09 12:01:43;;;;;;;8.90;8.10;;;9.70;99.90;;;;;;5043069;28;20215;-71
2024/02/09 12:04:11;;;;;;;8.23;7.47;;;9.60;99.90;;;;;;5043277;28;20643;-73
2024/02/09 12:06:39;;;;;;;8.52;7.72;;;9.70;99.90;;;;;;5034598;28;20708;-71
2024/02/09 12:09:06;;;;;;;7.93;7.13;;;9.70;99.90;;;;;;5043322;28;20206;-71
2024/02/09 12:11:33;;;;;;;7.55;6.70;;;9.70;99.90;;;;;;5052689;28;20282;-70
2024/02/09 12:14:00;;;;;;;8.32;7.50;;;9.70;99.90;;;;;;5045583;28;20198;-71
2024/02/09 12:16:29;;;;;;;8.82;7.95;;;9.70;99.90;;;;;;5063636;28;20226;-71
2024/02/09 12:18:58;;;;;;;8.32;7.60;;;9.70;99.90;;;;;;5039288;28;20898;-70
2024/02/09 12:21:26;;;;;;;7.50;6.80;;;9.70;99.90;;;;;;5036825;28;20441;-72
2024/02/09 12:23:55;;;;;;;7.07;6.47;;;9.70;99.90;;;;;;5046868;28;20290;-72
2024/02/09 12:26:23;;;;;;;6.35;5.75;;;9.80;99.90;;;;;;5045402;28;20230;-72
2024/02/09 12:28:50;;;;;;;6.30;5.80;;;9.90;99.90;;;;;;5050913;28;20192;-71
2024/02/09 12:31:19;;;;;;;6.15;5.30;;;9.90;99.90;;;;;;5045513;28;20258;-70
2024/02/09 12:33:49;;;;;;;6.35;5.75;;;10.00;99.90;;;;;;5042841;28;20238;-71
2024/02/09 12:36:19;;;;;;;5.70;5.28;;;9.90;99.90;;;;;;5040523;28;20249;-72
2024/02/09 12:38:46;;;;;;;6.90;6.30;;;9.90;99.90;;;;;;5036622;28;20219;-72
2024/02/09 12:41:16;;;;;;;6.85;6.22;;;9.80;99.90;;;;;;5035071;28;20246;-72
2024/02/09 12:43:45;;;;;;;7.90;6.68;;;9.70;99.90;;;;;;5041741;28;20879;-71
2024/02/09 12:46:12;;;;;;;6.35;5.75;;;9.70;99.90;;;;;;5040527;28;20258;-71
2024/02/09 12:48:41;;;;;;;6.57;5.53;;;9.70;99.90;;;;;;5041718;28;20295;-72
2024/02/09 12:51:10;;;;;;;6.18;5.57;;;9.60;99.90;;;;;;5031020;28;20384;-71
2024/02/09 12:53:39;;;;;;;3.33;3.05;;;9.60;99.90;;;;;;5038568;28;20689;-72
2024/02/09 12:56:06;;;;;;;3.13;2.92;;;9.80;99.90;;;;;;5035579;28;22280;-73
2024/02/09 12:58:33;;;;;;;4.28;3.70;;;10.10;99.90;;;;;;5040938;28;20245;-73
2024/02/09 13:01:01;;;;;;;5.88;4.75;;;10.30;99.90;;;;;;5046150;28;20254;-72
2024/02/09 13:03:28;;;;;;;7.35;4.97;;;10.20;99.90;;;;;;5048472;28;20677;-72
2024/02/09 13:05:55;;;;;;;6.43;5.25;;;10.10;99.90;;;;;;5044558;28;20326;-73
2024/02/09 13:08:24;;;;;;;5.53;5.03;;;10.10;99.90;;;;;;5042865;28;20210;-73
2024/02/09 13:10:51;;;;;;;4.15;3.85;;;10.30;99.90;;;;;;5041223;28;20380;-73
2024/02/09 13:13:18;;;;;;;2.85;2.65;;;10.30;99.90;;;;;;5040136;28;20332;-74
2024/02/09 13:15:46;;;;;;;3.08;2.78;;;10.40;99.90;;;;;;5039011;28;20364;-74
2024/02/09 13:18:13;;;;;;;4.30;4.00;;;10.70;99.90;;;;;;5042102;28;20230;-74
2024/02/09 13:20:42;;;;;;;4.78;4.22;;;10.60;99.90;;;;;;5039469;28;20238;-74
2024/02/09 13:23:09;;;;;;;5.43;4.93;;;10.30;99.90;;;;;;5047773;28;20211;-75
2024/02/09 13:25:40;;;;;;;6.60;5.90;;;10.10;99.90;;;;;;5044444;28;20222;-75
2024/02/09 13:28:08;;;;;;;5.80;5.07;;;10.00;99.90;;;;;;5042035;28;20202;-74
2024/02/09 13:30:35;;;;;;;5.68;5.13;;;9.90;99.90;;;;;;5034690;28;20279;-74
2024/02/09 13:33:03;;;;;;;5.80;5.28;;;9.90;99.90;;;;;;5032739;28;20223;-72
2024/02/09 13:35:30;;;;;;;6.18;5.57;;;9.90;99.90;;;;;;5032040;28;20329;-74
2024/02/09 13:37:57;;;;;;;5.32;4.93;;;9.90;99.90;;;;;;5033058;28;20318;-73
2024/02/09 13:40:24;;;;;;;4.90;4.10;;;9.90;99.90;;;;;;5043588;28;20250;-73
2024/02/09 13:42:53;;;;;;;4.38;3.33;;;10.00;99.90;;;;;;5041746;28;20203;-73
2024/02/09 13:45:23;;;;;;;7.25;4.40;;;10.20;99.90;;;;;;5043634;28;20219;-72
2024/02/09 13:47:51;;;;;;;4.18;3.30;;;10.50;99.90;;;;;;5042967;28;20202;-72
2024/02/09 13:50:23;;;;;;;2.70;2.47;;;10.80;99.90;;;;;;5043708;28;20721;-74
2024/02/09 13:52:52;;;;;;;2.30;2.10;;;10.90;99.90;;;;;;5040560;28;20211;-74
2024/02/09 13:55:22;;;;;;;2.75;2.55;;;11.00;99.90;;;;;;5042260;28;20798;-74
2024/02/09 13:57:55;;;;;;;2.80;2.60;;;11.10;99.90;;;;;;5040855;28;20253;-76
2024/02/09 14:00:24;;;;;;;3.80;3.35;;;11.10;99.90;;;;;;5036666;28;20226;-76
2024/02/09 14:02:51;;;;;;;5.72;3.30;;;11.00;99.90;;;;;;5038443;28;20215;-76
2024/02/09 14:05:18;;;;;;;2.95;2.67;;;11.00;99.90;;;;;;5044138;28;20723;-75
2024/02/09 14:07:46;;;;;;;4.07;3.47;;;11.00;99.90;;;;;;5043742;28;20920;-75
2024/02/09 14:10:15;;;;;;;2.53;2.33;;;10.90;99.90;;;;;;5039179;28;20225;-75
2024/02/09 14:12:42;;;;;;;2.58;2.33;;;10.90;99.90;;;;;;5060089;28;20842;-74
2024/02/09 14:15:14;;;;;;;2.58;2.45;;;11.00;99.90;;;;;;5042636;28;20882;-77
2024/02/09 14:17:41;;;;;;;2.08;1.98;;;11.10;99.90;;;;;;5061576;28;20223;-78
2024/02/09 14:20:10;;;;;;;1.80;1.70;;;11.20;99.90;;;;;;5042190;28;20783;-76
2024/02/09 14:22:37;;;;;;;2.05;1.92;;;11.20;99.90;;;;;;5045458;28;20218;-74
2024/02/09 14:25:05;;;;;;;2.20;1.98;;;11.30;99.90;;;;;;5047085;28;20254;-75
2024/02/09 14:27:33;;;;;;;2.30;2.10;;;11.30;99.90;;;;;;5045929;28;20222;-74
2024/02/09 14:30:00;;;;;;;2.33;2.20;;;11.30;99.90;;;;;;5043950;28;20950;-75
2024/02/09 14:32:29;;;;;;;2.42;2.20;;;11.20;99.90;;;;;;5044248;28;20286;-76
2024/02/09 14:34:57;;;;;;;2.47;2.28;;;11.20;99.90;;;;;;5047370;28;20887;-77